Impacts TAF Board INFO
FOR SITUATIONAL AWARENESS. NOT TO BE USED FOR FLIGHT PLANNING PURPOSES.
IDs:

KPHX - Phoenix/Sky Harbor, AZ, US

Issued at 0520 UTC 18 Nov 2017
Updated at 0821 UTC 18 Nov 2017
Potential Impact None Slight Moderate High
Time<<19/09Z 19/10Z 19/11Z 19/12Z 19/13Z 19/14Z 19/15Z 19/16Z 19/17Z 19/18Z 19/19Z 19/20Z 19/21Z
Type PRVL PRVL PRVL
VIS >6 >6 >6
CIG -- -- --
Cover SKC SKC SKC
FltCat VFR VFR VFR
WX -- -- --
WDir 300 300 300
WSpd 5 5 5
WGst -- -- --

Raw TAF
KPHX 180520Z 1806/1912 30005KT P6SM SCT150 BKN250
  FM180800 07004KT P6SM SCT250
  FM181100 23003KT P6SM FEW250
  FM181500 06011KT P6SM FEW250
  FM190000 30005KT P6SM SKC


METAR Board
Radar Display
Forecast Discussion

FOR SITUATIONAL AWARENESS. NOT TO BE USED FOR FLIGHT PLANNING PURPOSES.